Flight Track Log - Related Links

Times and Time Zones

All times are in EDT time to prevent confusion due to time zone crossing. See the ASQ4400 flight status page for this flight to view local times or setup timezone preferences in your user account.

Time Position Orientation Groundspeed Altitude Reporting Facility
EDT Latitude Longitude Course Direction KTS MPH feet Rate Location/Type
Thu 02:19:36 PM 40.7167 -74.1500 40° Northeast 171 197 1,600  Level New York TRACON
Thu 02:20:42 PM 40.7667 -74.1000 37° Northeast 240 276 3,500 2,238 Climbing New York TRACON
Thu 02:21:42 PM 40.7833 -74.0167 75° East 267 307 6,300 2,550 Climbing New York TRACON
Thu 02:22:00 PM 40.9417 -73.8750 37° Northeast  Level FlightAware Approximate
Thu 02:22:42 PM 40.8000 -73.9000 79° East 297 342 8,600  Level New York TRACON
Thu 02:23:00 PM 41.0118 -73.8034 40° Northeast  Level FlightAware Approximate
Thu 02:24:00 PM 41.0794 -73.7275 40° Northeast  Level FlightAware Approximate
Thu 02:25:12 PM 40.9336 -73.6564 54° Northeast 371 427 12,000  Level Boston Center
Thu 02:26:14 PM 41.0089 -73.5411 49° Northeast 388 447 13,700 1,680 Climbing Boston Center
Thu 02:27:17 PM 41.1147 -73.4919 19° North 377 434 15,500 1,742 Climbing Boston Center
Thu 02:28:18 PM 41.2103 -73.4464 20° North 367 422 17,300 1,403 Climbing Boston Center
Thu 02:29:21 PM 41.3167 -73.3953 20° North 376 433 18,400 968 Climbing Boston Center
Thu 02:30:22 PM 41.4250 -73.3428 20° North 402 463 19,300 942 Climbing Boston Center
Thu 02:31:22 PM 41.5281 -73.2625 30° Northeast 434 499 20,300 1,041 Climbing Boston Center
Thu 02:32:23 PM 41.6250 -73.2492 North 406 467 21,400 1,161 Climbing Boston Center
Thu 02:33:26 PM 41.7364 -73.2542 358° North 400 460 22,700 1,258 Climbing Boston Center
Thu 02:34:27 PM 41.8461 -73.2633 356° North 395 455 24,000 1,415 Climbing Boston Center
Thu 02:35:29 PM 41.9786 -73.2731 357° North 397 457 25,600 1,366 Climbing Boston Center
Thu 02:36:30 PM 42.0872 -73.2808 357° North 390 449 26,800 694 Climbing Boston Center
Thu 02:37:30 PM 42.2000 -73.2886 357° North 401 461 27,000 97 Climbing Boston Center
Thu 02:38:34 PM 42.3197 -73.2964 357° North 424 488 27,000  Level Boston Center
Thu 02:39:34 PM 42.4481 -73.2578 13° North 469 540 27,000  Level Boston Center
Thu 02:40:38 PM 42.5794 -73.2053 16° North 480 552 27,000  Level Boston Center
Thu 02:41:38 PM 42.7111 -73.1514 17° North 488 562 27,000  Level Boston Center
Thu 02:42:38 PM 42.8431 -73.0986 16° North 490 564 27,000  Level Boston Center
Thu 02:43:39 PM 42.9744 -73.0450 17° North 490 564 27,000  Level Boston Center
Thu 02:44:43 PM 43.1239 -72.9853 16° North 494 568 27,000  Level Boston Center
Thu 02:45:43 PM 43.2369 -72.9392 17° North 489 563 27,000  Level Boston Center
Thu 02:46:47 PM 43.3886 -72.8775 16° North 474 545 27,000  Level Boston Center
Thu 02:47:47 PM 43.5142 -72.8250 17° North 472 543 27,000  Level Boston Center
Thu 02:48:47 PM 43.6394 -72.7725 17° North 471 542 27,000  Level Boston Center
Thu 02:49:51 PM 43.7633 -72.7214 17° North 466 536 27,000  Level Boston Center
Thu 02:50:51 PM 43.8842 -72.6717 17° North 455 524 27,000  Level Boston Center
Thu 02:51:53 PM 44.0150 -72.6172 17° North 443 510 27,000  Level Boston Center
Thu 02:52:53 PM 44.1325 -72.5669 17° North 444 511 27,000  Level Boston Center
Thu 02:53:56 PM 44.2519 -72.5161 17° North 449 517 27,000  Level Boston Center
Thu 02:54:57 PM 44.3719 -72.4653 17° North 453 521 27,000  Level Boston Center
Thu 02:56:00 PM 44.4925 -72.4142 17° North 456 525 27,000  Level Boston Center
Thu 02:57:01 PM 44.6364 -72.3522 17° North 455 524 27,000 -50 Level Boston Center
Thu 02:58:01 PM 44.7536 -72.3017 17° North 446 513 26,900 -484 Descending Boston Center
Thu 02:59:05 PM 44.8711 -72.2531 16° North 444 511 26,000 -435 Descending Boston Center
Thu 03:00:05 PM 44.9897 -72.2008 17° North 449 517 26,000  Level Boston Center
Thu 03:01:02 PM 45.1000 -72.1167 28° Northeast 450 518 26,000  Level Montreal Center
Thu 03:02:02 PM 45.2167 -72.0667 17° North 450 518 26,000  Level Montreal Center
Thu 03:03:02 PM 45.3500 -72.0333 10° North 450 518 26,000  Level Montreal Center
Thu 03:04:02 PM 45.4667 -71.9833 17° North 450 518 26,000  Level Montreal Center
Thu 03:05:02 PM 45.5833 -71.9167 22° Northeast 450 518 26,000  Level Montreal Center
Thu 03:06:02 PM 45.7000 -71.8667 17° North 450 518 26,000 -550 Level Montreal Center
Thu 03:07:02 PM 45.8167 -71.8000 22° Northeast 450 518 24,900 -1,350 Descending Montreal Center
Thu 03:08:02 PM 45.9500 -71.7500 15° North 440 506 23,300 -1,600 Descending Montreal Center
Thu 03:09:02 PM 46.0500 -71.7167 13° North 430 495 21,700 -1,750 Descending Montreal Center
Thu 03:10:02 PM 46.1667 -71.6833 11° North 400 460 19,800 -1,800 Descending Montreal Center
Thu 03:11:02 PM 46.2667 -71.6500 13° North 380 437 18,100 -1,800 Descending Montreal Center
Thu 03:12:02 PM 46.3667 -71.6000 19° North 380 437 16,200 -2,000 Descending Montreal Center
Thu 03:13:02 PM 46.4500 -71.5167 35° Northeast 380 437 14,100 -2,050 Descending Montreal Center
Thu 03:14:02 PM 46.5333 -71.4333 35° Northeast 360 414 12,100 -1,750 Descending Montreal Center
Thu 03:15:02 PM 46.6000 -71.3500 41° Northeast 310 357 10,600 -1,550 Descending Montreal Center
Thu 03:16:02 PM 46.6667 -71.3000 27° Northeast 270 311 9,000 -1,850 Descending Montreal Center
Thu 03:17:02 PM 46.7333 -71.2167 41° Northeast 270 311 6,900 -1,650 Descending Montreal Center
Thu 03:18:02 PM 46.8000 -71.1667 27° Northeast 250 288 5,700 -1,250 Descending Montreal Center
Thu 03:19:02 PM 46.8333 -71.1000 54° Northeast 210 242 4,400 -850 Descending Montreal Center
Thu 03:20:02 PM 46.9000 -71.1333 341° North 190 219 4,000 -550 Descending Montreal Center
Thu 03:21:02 PM 46.9000 -71.2000 270° West 170 196 3,300 -750 Descending Montreal Center
Thu 03:22:02 PM 46.8667 -71.2500 226° Southwest 170 196 2,500 -750 Descending Montreal Center
Thu 03:23:02 PM 46.8333 -71.2833 214° Southwest 150 173 1,800 -750 Descending Montreal Center
Thu 03:24:02 PM 46.8167 -71.3333 244° Southwest 150 173 1,000 -750 Descending Montreal Center
Thu 03:25:02 PM 46.7833 -71.3833 226° Southwest 150 173 300 -700 Descending Montreal Center

Login

Don't have an account? Register now (free) for customized features, flight alerts, and more!